Aeroporto :
LOGIN :

Iscrizione | Disclaimer

   EN    FR    IT 

 










Sommario :    VFR   VFR Marginale   IFR   IFR Intensivo   IFR Molto Intensivo
Visibilità : 
Base nubi : 
>= 8 km
>= 3000ft
5 / 8 km
1000 / 3000 ft
1500m / 5 km
500 / 1000 ft
800 / 1500m
200 / 500 ft
< 800m
< 200 ft
Simboli :   Temporali  Nebbia  Neve Forte  Precipitazioni Forti  Vento > 20 kt
SIGMETs :   Varie  Temporali  Ghiacco  Turbolenza  Onda orograficha  Ceneri Vulcaniche






- Altitudine del aeroporto : 443 ft
- Codice IATA : GNA


UMMG - Grodno

ULTIMO METAR :
  • 240900Z 16003G06MPS CAVOK 20/13 Q1008 R17/CLRD// NOSIG

METARs OBSOLETI :
  • 240830Z 15003MPS CAVOK 17/12 Q1008 R17/CLRD// NOSIG
  • 240800Z 15003MPS CAVOK 17/12 Q1008 R17/CLRD// NOSIG
  • 240730Z 16002MPS CAVOK 15/11 Q1008 R17/CLRD// NOSIG
  • 240700Z 15002MPS 9000 NSC 15/11 Q1008 R17/CLRD// NOSIG
  • 240630Z 14002MPS 9000 NSC 12/10 Q1008 R17/CLRD// NOSIG

TAF TAF UMMG
Valido dal 24 a 09 ore il 24 a 18 ore UTC


240802Z 2409/2418 16003G08MPS 9999 BKN020
TEMPO 2409/2415 17005G10MPS
TEMPO 2415/2418 14003MPS 3000 -SHRA SCT016CB



MetMap, La meteo Aeronautica in un colpo d'occhio ! - Copyright ORBIFLY Dicembre 2007 - Disclaimer

ORBIFLY MET'MAP TEAM :

Programmazione e sviluppo : Alexandra Zaïnal
Concezione : Baudouin d'Aumeries
Aiuto per la programmazione : Marc-Olivier Méhu
Supporto tecnico e logistico : Manuel Goepfert
Aiuto per la traduzione : Arnaldo La Scala

Contatto : metmap@orbifly.com




FONTI E CREDITI :

   NOAA